sensor_id;sensor_type;location;lat;lon;timestamp;pressure;altitude;pressure_sealevel;temperature;humidity
52535;BME280;38443;53.164;5.802;2023-05-02T00:00:06;102094.78;;;8.56;100.00
52535;BME280;38443;53.164;5.802;2023-05-02T00:02:32;102090.31;;;8.55;100.00
52535;BME280;38443;53.164;5.802;2023-05-02T00:04:57;102095.66;;;8.51;100.00
52535;BME280;38443;53.164;5.802;2023-05-02T00:07:22;102094.75;;;8.52;100.00
52535;BME280;38443;53.164;5.802;2023-05-02T00:09:48;102087.63;;;8.48;100.00
52535;BME280;38443;53.164;5.802;2023-05-02T00:12:13;102091.16;;;8.37;100.00
52535;BME280;38443;53.164;5.802;2023-05-02T00:14:38;102094.72;;;8.39;100.00
52535;BME280;38443;53.164;5.802;2023-05-02T00:17:03;102097.41;;;8.33;100.00
52535;BME280;38443;53.164;5.802;2023-05-02T00:19:29;102090.31;;;8.34;100.00
52535;BME280;38443;53.164;5.802;2023-05-02T00:21:54;102092.06;;;8.35;100.00
52535;BME280;38443;53.164;5.802;2023-05-02T00:24:19;102097.44;;;8.41;100.00
52535;BME280;38443;53.164;5.802;2023-05-02T00:26:45;102093.91;;;8.42;100.00
52535;BME280;38443;53.164;5.802;2023-05-02T00:29:10;102100.97;;;8.40;100.00
52535;BME280;38443;53.164;5.802;2023-05-02T00:31:35;102084.97;;;8.40;100.00
52535;BME280;38443;53.164;5.802;2023-05-02T00:34:00;102090.28;;;8.37;100.00
52535;BME280;38443;53.164;5.802;2023-05-02T00:36:26;102101.84;;;8.41;100.00
52535;BME280;38443;53.164;5.802;2023-05-02T00:38:51;102092.97;;;8.37;100.00
52535;BME280;38443;53.164;5.802;2023-05-02T00:41:16;102100.06;;;8.39;100.00
52535;BME280;38443;53.164;5.802;2023-05-02T00:43:42;102105.41;;;8.39;100.00
52535;BME280;38443;53.164;5.802;2023-05-02T00:46:08;102100.97;;;8.42;100.00
52535;BME280;38443;53.164;5.802;2023-05-02T00:48:36;102113.44;;;8.43;100.00
52535;BME280;38443;53.164;5.802;2023-05-02T00:51:02;102131.19;;;8.39;100.00
52535;BME280;38443;53.164;5.802;2023-05-02T00:53:29;102128.50;;;8.24;100.00
52535;BME280;38443;53.164;5.802;2023-05-02T00:55:57;102148.97;;;8.17;100.00
52535;BME280;38443;53.164;5.802;2023-05-02T00:58:23;102141.84;;;8.08;100.00
52535;BME280;38443;53.164;5.802;2023-05-02T01:01:25;102154.28;;;8.00;100.00
52535;BME280;38443;53.164;5.802;2023-05-02T01:09:39;102159.53;;;7.78;100.00
52535;BME280;38443;53.164;5.802;2023-05-02T01:12:11;102158.63;;;7.76;100.00
52535;BME280;38443;53.164;5.802;2023-05-02T01:14:42;102163.97;;;7.76;100.00
52535;BME280;38443;53.164;5.802;2023-05-02T01:17:12;102165.72;;;7.73;100.00
52535;BME280;38443;53.164;5.802;2023-05-02T01:19:42;102162.16;;;7.66;100.00
52535;BME280;38443;53.164;5.802;2023-05-02T01:22:10;102182.53;;;7.61;100.00
52535;BME280;38443;53.164;5.802;2023-05-02T01:24:42;102184.31;;;7.56;100.00
52535;BME280;38443;53.164;5.802;2023-05-02T01:29:49;102188.72;;;7.51;100.00
52535;BME280;38443;53.164;5.802;2023-05-02T01:32:17;102187.81;;;7.46;100.00
52535;BME280;38443;53.164;5.802;2023-05-02T01:34:45;102187.78;;;7.43;100.00
52535;BME280;38443;53.164;5.802;2023-05-02T01:37:14;102191.31;;;7.38;100.00
52535;BME280;38443;53.164;5.802;2023-05-02T01:39:42;102193.09;;;7.38;100.00
52535;BME280;38443;53.164;5.802;2023-05-02T01:42:10;102203.72;;;7.30;100.00
52535;BME280;38443;53.164;5.802;2023-05-02T01:44:36;102198.34;;;7.24;100.00
52535;BME280;38443;53.164;5.802;2023-05-02T01:47:03;102201.88;;;7.23;100.00
52535;BME280;38443;53.164;5.802;2023-05-02T01:49:32;102204.53;;;7.20;100.00
52535;BME280;38443;53.164;5.802;2023-05-02T01:52:02;102211.59;;;7.16;100.00
52535;BME280;38443;53.164;5.802;2023-05-02T01:54:29;102227.59;;;7.18;100.00
52535;BME280;38443;53.164;5.802;2023-05-02T01:56:55;102232.03;;;7.16;100.00
52535;BME280;38443;53.164;5.802;2023-05-02T01:59:22;102230.22;;;7.15;100.00
52535;BME280;38443;53.164;5.802;2023-05-02T02:01:50;102228.41;;;7.09;100.00
52535;BME280;38443;53.164;5.802;2023-05-02T02:04:18;102241.72;;;7.08;100.00
52535;BME280;38443;53.164;5.802;2023-05-02T02:06:47;102246.09;;;7.03;100.00
52535;BME280;38443;53.164;5.802;2023-05-02T02:09:12;102247.88;;;7.01;100.00
52535;BME280;38443;53.164;5.802;2023-05-02T02:11:42;102246.91;;;6.91;100.00
52535;BME280;38443;53.164;5.802;2023-05-02T02:14:19;102266.38;;;6.87;100.00
52535;BME280;38443;53.164;5.802;2023-05-02T02:16:45;102261.03;;;6.84;100.00
52535;BME280;38443;53.164;5.802;2023-05-02T02:19:12;102267.16;;;6.75;100.00
52535;BME280;38443;53.164;5.802;2023-05-02T02:21:38;102272.47;;;6.72;100.00
52535;BME280;38443;53.164;5.802;2023-05-02T02:24:05;102273.38;;;6.77;100.00
52535;BME280;38443;53.164;5.802;2023-05-02T02:26:32;102285.81;;;6.76;100.00
52535;BME280;38443;53.164;5.802;2023-05-02T02:28:59;102267.16;;;6.75;100.00
52535;BME280;38443;53.164;5.802;2023-05-02T02:31:32;102277.78;;;6.75;100.00
52535;BME280;38443;53.164;5.802;2023-05-02T02:33:58;102282.25;;;6.76;100.00
52535;BME280;38443;53.164;5.802;2023-05-02T02:36:24;102284.84;;;6.71;100.00
52535;BME280;38443;53.164;5.802;2023-05-02T02:41:42;102291.94;;;6.69;100.00
52535;BME280;38443;53.164;5.802;2023-05-02T02:44:26;102302.59;;;6.71;100.00
52535;BME280;38443;53.164;5.802;2023-05-02T02:47:05;102312.38;;;6.72;100.00
52535;BME280;38443;53.164;5.802;2023-05-02T02:52:10;102325.47;;;6.55;100.00
52535;BME280;38443;53.164;5.802;2023-05-02T02:54:46;102320.13;;;6.50;100.00
52535;BME280;38443;53.164;5.802;2023-05-02T02:57:17;102331.59;;;6.46;100.00
52535;BME280;38443;53.164;5.802;2023-05-02T03:00:01;102328.03;;;6.44;100.00
52535;BME280;38443;53.164;5.802;2023-05-02T03:02:31;102328.97;;;6.48;100.00
52535;BME280;38443;53.164;5.802;2023-05-02T03:04:57;102333.38;;;6.49;100.00
52535;BME280;38443;53.164;5.802;2023-05-02T03:07:23;102337.78;;;6.45;100.00
52535;BME280;38443;53.164;5.802;2023-05-02T03:09:51;102342.22;;;6.45;100.00
52535;BME280;38443;53.164;5.802;2023-05-02T03:12:16;102352.81;;;6.40;100.00
52535;BME280;38443;53.164;5.802;2023-05-02T03:14:42;102352.84;;;6.42;100.00
52535;BME280;38443;53.164;5.802;2023-05-02T03:17:07;102351.88;;;6.36;100.00
52535;BME280;38443;53.164;5.802;2023-05-02T03:19:33;102352.78;;;6.38;100.00
52535;BME280;38443;53.164;5.802;2023-05-02T03:21:59;102368.75;;;6.38;100.00
52535;BME280;38443;53.164;5.802;2023-05-02T03:24:24;102356.31;;;6.36;100.00
52535;BME280;38443;53.164;5.802;2023-05-02T03:26:54;102359.91;;;6.39;100.00
52535;BME280;38443;53.164;5.802;2023-05-02T03:29:19;102364.34;;;6.42;100.00
52535;BME280;38443;53.164;5.802;2023-05-02T03:31:45;102364.34;;;6.42;100.00
52535;BME280;38443;53.164;5.802;2023-05-02T03:34:10;102376.78;;;6.45;100.00
52535;BME280;38443;53.164;5.802;2023-05-02T03:36:35;102381.16;;;6.41;100.00
52535;BME280;38443;53.164;5.802;2023-05-02T03:39:01;102382.91;;;6.39;100.00
52535;BME280;38443;53.164;5.802;2023-05-02T03:41:27;102381.97;;;6.32;100.00
52535;BME280;38443;53.164;5.802;2023-05-02T03:43:52;102379.34;;;6.35;100.00
52535;BME280;38443;53.164;5.802;2023-05-02T03:46:17;102388.13;;;6.31;100.00
52535;BME280;38443;53.164;5.802;2023-05-02T03:48:43;102389.06;;;6.35;100.00
52535;BME280;38443;53.164;5.802;2023-05-02T03:51:10;102398.81;;;6.34;100.00
52535;BME280;38443;53.164;5.802;2023-05-02T03:53:35;102398.75;;;6.31;100.00
52535;BME280;38443;53.164;5.802;2023-05-02T03:56:02;102398.75;;;6.28;100.00
52535;BME280;38443;53.164;5.802;2023-05-02T03:58:27;102400.38;;;6.18;100.00
52535;BME280;38443;53.164;5.802;2023-05-02T04:00:53;102391.53;;;6.19;100.00
52535;BME280;38443;53.164;5.802;2023-05-02T04:03:18;102410.97;;;6.17;100.00
52535;BME280;38443;53.164;5.802;2023-05-02T04:05:44;102396.78;;;6.13;100.00
52535;BME280;38443;53.164;5.802;2023-05-02T04:08:09;102399.31;;;6.07;100.00
52535;BME280;38443;53.164;5.802;2023-05-02T04:10:35;102414.38;;;6.07;100.00
52535;BME280;38443;53.164;5.802;2023-05-02T04:13:00;102421.41;;;6.02;100.00
52535;BME280;38443;53.164;5.802;2023-05-02T04:15:27;102422.31;;;6.02;100.00
52535;BME280;38443;53.164;5.802;2023-05-02T04:17:52;102436.41;;;5.98;100.00
52535;BME280;38443;53.164;5.802;2023-05-02T04:20:18;102440.88;;;6.01;100.00
52535;BME280;38443;53.164;5.802;2023-05-02T04:22:43;102431.00;;;5.93;100.00
52535;BME280;38443;53.164;5.802;2023-05-02T04:25:11;102437.28;;;5.97;100.00
52535;BME280;38443;53.164;5.802;2023-05-02T04:27:37;102444.31;;;5.95;100.00
52535;BME280;38443;53.164;5.802;2023-05-02T04:30:02;102455.06;;;5.99;100.00
52535;BME280;38443;53.164;5.802;2023-05-02T04:32:28;102443.50;;;5.99;100.00
52535;BME280;38443;53.164;5.802;2023-05-02T04:34:54;102432.97;;;6.04;100.00
52535;BME280;38443;53.164;5.802;2023-05-02T04:37:19;102438.28;;;6.04;100.00
52535;BME280;38443;53.164;5.802;2023-05-02T04:39:45;102447.19;;;6.09;100.00
52535;BME280;38443;53.164;5.802;2023-05-02T04:42:10;102447.19;;;6.09;100.00
52535;BME280;38443;53.164;5.802;2023-05-02T04:44:35;102449.03;;;6.13;100.00
52535;BME280;38443;53.164;5.802;2023-05-02T04:47:00;102467.59;;;6.11;100.00
52535;BME280;38443;53.164;5.802;2023-05-02T04:49:26;102459.75;;;6.17;100.00
52535;BME280;38443;53.164;5.802;2023-05-02T04:51:51;102472.09;;;6.14;100.00
52535;BME280;38443;53.164;5.802;2023-05-02T04:54:17;102481.03;;;6.17;100.00
52535;BME280;38443;53.164;5.802;2023-05-02T04:56:42;102478.31;;;6.14;100.00
52535;BME280;38443;53.164;5.802;2023-05-02T04:59:07;102467.69;;;6.16;100.00
52535;BME280;38443;53.164;5.802;2023-05-02T05:01:33;102494.31;;;6.17;100.00
52535;BME280;38443;53.164;5.802;2023-05-02T05:03:58;102493.44;;;6.18;100.00
52535;BME280;38443;53.164;5.802;2023-05-02T05:06:23;102486.25;;;6.13;100.00
52535;BME280;38443;53.164;5.802;2023-05-02T05:08:49;102492.50;;;6.13;100.00
52535;BME280;38443;53.164;5.802;2023-05-02T05:11:14;102500.44;;;6.12;100.00
52535;BME280;38443;53.164;5.802;2023-05-02T05:13:42;102496.97;;;6.17;100.00
52535;BME280;38443;53.164;5.802;2023-05-02T05:16:07;102500.50;;;6.16;100.00
52535;BME280;38443;53.164;5.802;2023-05-02T05:18:33;102503.19;;;6.18;100.00
52535;BME280;38443;53.164;5.802;2023-05-02T05:21:11;102509.44;;;6.22;100.00
52535;BME280;38443;53.164;5.802;2023-05-02T05:23:37;102513.88;;;6.23;100.00
52535;BME280;38443;53.164;5.802;2023-05-02T05:26:09;102505.03;;;6.24;100.00
52535;BME280;38443;53.164;5.802;2023-05-02T05:28:35;102513.88;;;6.23;100.00
52535;BME280;38443;53.164;5.802;2023-05-02T05:31:07;102512.06;;;6.20;100.00
52535;BME280;38443;53.164;5.802;2023-05-02T05:33:33;102519.22;;;6.24;100.00
52535;BME280;38443;53.164;5.802;2023-05-02T05:36:05;102528.06;;;6.23;100.00
52535;BME280;38443;53.164;5.802;2023-05-02T05:38:31;102520.19;;;6.29;100.00
52535;BME280;38443;53.164;5.802;2023-05-02T05:40:56;102519.31;;;6.30;100.00
52535;BME280;38443;53.164;5.802;2023-05-02T05:43:21;102517.66;;;6.38;100.00
52535;BME280;38443;53.164;5.802;2023-05-02T05:45:47;102524.75;;;6.38;100.00
52535;BME280;38443;53.164;5.802;2023-05-02T05:48:12;102528.38;;;6.43;100.00
52535;BME280;38443;53.164;5.802;2023-05-02T05:50:37;102532.78;;;6.41;100.00
52535;BME280;38443;53.164;5.802;2023-05-02T05:53:02;102541.72;;;6.46;100.00
52535;BME280;38443;53.164;5.802;2023-05-02T05:55:28;102546.16;;;6.46;100.00
52535;BME280;38443;53.164;5.802;2023-05-02T05:57:53;102543.53;;;6.49;100.00
52535;BME280;38443;53.164;5.802;2023-05-02T06:00:18;102554.06;;;6.43;100.00
52535;BME280;38443;53.164;5.802;2023-05-02T06:02:44;102551.47;;;6.46;100.00
52535;BME280;38443;53.164;5.802;2023-05-02T06:05:09;102555.91;;;6.47;100.00
52535;BME280;38443;53.164;5.802;2023-05-02T06:07:34;102559.53;;;6.50;100.00
52535;BME280;38443;53.164;5.802;2023-05-02T06:09:59;102566.66;;;6.53;100.00
52535;BME280;38443;53.164;5.802;2023-05-02T06:12:24;102565.81;;;6.57;100.00
52535;BME280;38443;53.164;5.802;2023-05-02T06:14:50;102572.97;;;6.59;100.00
52535;BME280;38443;53.164;5.802;2023-05-02T06:17:15;102580.16;;;6.67;100.00
52535;BME280;38443;53.164;5.802;2023-05-02T06:19:41;102572.09;;;6.61;100.00
52535;BME280;38443;53.164;5.802;2023-05-02T06:22:06;102584.63;;;6.68;100.00
52535;BME280;38443;53.164;5.802;2023-05-02T06:24:31;102581.97;;;6.68;100.00
52535;BME280;38443;53.164;5.802;2023-05-02T06:26:57;102584.72;;;6.75;100.00
52535;BME280;38443;53.164;5.802;2023-05-02T06:29:22;102584.75;;;6.77;100.00
52535;BME280;38443;53.164;5.802;2023-05-02T06:31:48;102591.16;;;6.91;100.00
52535;BME280;38443;53.164;5.802;2023-05-02T06:34:15;102586.97;;;7.09;100.00
52535;BME280;38443;53.164;5.802;2023-05-02T06:36:40;102589.66;;;7.10;100.00
52535;BME280;38443;53.164;5.802;2023-05-02T06:39:05;102593.28;;;7.17;100.00
52535;BME280;38443;53.164;5.802;2023-05-02T06:41:30;102601.19;;;7.11;100.00
52535;BME280;38443;53.164;5.802;2023-05-02T06:43:56;102595.94;;;7.17;100.00
52535;BME280;38443;53.164;5.802;2023-05-02T06:46:21;102605.84;;;7.26;100.00
52535;BME280;38443;53.164;5.802;2023-05-02T06:48:47;102608.59;;;7.35;100.00
52535;BME280;38443;53.164;5.802;2023-05-02T06:51:13;102623.75;;;7.41;100.00
52535;BME280;38443;53.164;5.802;2023-05-02T06:53:38;102624.63;;;7.38;100.00
52535;BME280;38443;53.164;5.802;2023-05-02T06:56:03;102622.03;;;7.44;100.00
52535;BME280;38443;53.164;5.802;2023-05-02T06:58:30;102626.69;;;7.64;100.00
52535;BME280;38443;53.164;5.802;2023-05-02T07:00:55;102628.53;;;7.66;100.00
52535;BME280;38443;53.164;5.802;2023-05-02T07:03:21;102630.53;;;7.89;100.00
52535;BME280;38443;53.164;5.802;2023-05-02T07:05:46;102631.16;;;8.50;100.00
52535;BME280;38443;53.164;5.802;2023-05-02T07:08:11;102621.88;;;9.31;100.00
52535;BME280;38443;53.164;5.802;2023-05-02T07:10:37;102631.00;;;10.01;100.00
52535;BME280;38443;53.164;5.802;2023-05-02T07:13:02;102627.44;;;9.91;100.00
52535;BME280;38443;53.164;5.802;2023-05-02T07:15:27;102631.69;;;9.38;96.05
52535;BME280;38443;53.164;5.802;2023-05-02T07:17:53;102637.75;;;9.03;100.00
52535;BME280;38443;53.164;5.802;2023-05-02T07:20:18;102636.50;;;8.50;100.00
52535;BME280;38443;53.164;5.802;2023-05-02T07:22:44;102638.94;;;8.29;100.00
52535;BME280;38443;53.164;5.802;2023-05-02T07:25:09;102654.75;;;8.09;100.00
52535;BME280;38443;53.164;5.802;2023-05-02T07:27:34;102660.56;;;7.72;100.00
52535;BME280;38443;53.164;5.802;2023-05-02T07:30:00;102670.34;;;7.72;100.00
52535;BME280;38443;53.164;5.802;2023-05-02T07:32:25;102671.09;;;7.60;100.00
52535;BME280;38443;53.164;5.802;2023-05-02T07:34:51;102674.66;;;7.62;100.00
52535;BME280;38443;53.164;5.802;2023-05-02T07:37:20;102679.06;;;7.58;100.00
52535;BME280;38443;53.164;5.802;2023-05-02T07:39:45;102679.78;;;7.47;100.00
52535;BME280;38443;53.164;5.802;2023-05-02T07:42:11;102679.84;;;7.50;100.00
52535;BME280;38443;53.164;5.802;2023-05-02T07:44:36;102680.75;;;7.53;100.00
52535;BME280;38443;53.164;5.802;2023-05-02T07:47:01;102681.75;;;7.60;100.00
52535;BME280;38443;53.164;5.802;2023-05-02T07:49:27;102677.19;;;7.50;100.00
52535;BME280;38443;53.164;5.802;2023-05-02T07:51:52;102691.50;;;7.59;100.00
52535;BME280;38443;53.164;5.802;2023-05-02T07:54:17;102688.94;;;7.67;100.00
52535;BME280;38443;53.164;5.802;2023-05-02T07:56:43;102688.25;;;7.82;100.00
52535;BME280;38443;53.164;5.802;2023-05-02T07:59:09;102687.41;;;7.89;100.00
52535;BME280;38443;53.164;5.802;2023-05-02T08:01:34;102683.06;;;7.97;100.00
52535;BME280;38443;53.164;5.802;2023-05-02T08:03:59;102685.88;;;8.08;96.20
52535;BME280;38443;53.164;5.802;2023-05-02T08:06:25;102687.69;;;8.12;100.00
52535;BME280;38443;53.164;5.802;2023-05-02T08:08:50;102690.22;;;8.02;93.16
52535;BME280;38443;53.164;5.802;2023-05-02T08:11:16;102693.81;;;8.05;100.00
52535;BME280;38443;53.164;5.802;2023-05-02T08:13:41;102694.56;;;7.90;96.57
52535;BME280;38443;53.164;5.802;2023-05-02T08:16:06;102703.38;;;7.85;99.19
52535;BME280;38443;53.164;5.802;2023-05-02T08:18:32;102706.09;;;7.88;100.00
52535;BME280;38443;53.164;5.802;2023-05-02T08:20:58;102712.13;;;7.74;99.17
52535;BME280;38443;53.164;5.802;2023-05-02T08:23:23;102705.06;;;7.79;99.65
52535;BME280;38443;53.164;5.802;2023-05-02T08:25:48;102712.97;;;7.70;86.64
52535;BME280;38443;53.164;5.802;2023-05-02T08:28:14;102714.00;;;7.80;90.70
52535;BME280;38443;53.164;5.802;2023-05-02T08:30:39;102714.91;;;7.82;83.39
52535;BME280;38443;53.164;5.802;2023-05-02T08:33:04;102720.31;;;7.91;83.55
52535;BME280;38443;53.164;5.802;2023-05-02T08:35:30;102727.56;;;8.00;82.80
52535;BME280;38443;53.164;5.802;2023-05-02T08:37:55;102723.28;;;8.14;87.24
52535;BME280;38443;53.164;5.802;2023-05-02T08:40:21;102734.88;;;8.21;86.34
52535;BME280;38443;53.164;5.802;2023-05-02T08:42:46;102739.28;;;8.14;85.54
52535;BME280;38443;53.164;5.802;2023-05-02T08:45:12;102737.41;;;8.07;84.79
52535;BME280;38443;53.164;5.802;2023-05-02T08:47:39;102739.25;;;8.13;92.35
52535;BME280;38443;53.164;5.802;2023-05-02T08:50:05;102735.81;;;8.25;97.65
52535;BME280;38443;53.164;5.802;2023-05-02T08:52:31;102737.59;;;8.26;99.63
52535;BME280;38443;53.164;5.802;2023-05-02T08:54:57;102746.38;;;8.15;98.33
52535;BME280;38443;53.164;5.802;2023-05-02T08:57:23;102743.69;;;8.12;100.00
52535;BME280;38443;53.164;5.802;2023-05-02T08:59:49;102749.97;;;8.19;100.00
52535;BME280;38443;53.164;5.802;2023-05-02T09:02:22;102742.09;;;8.30;100.00
52535;BME280;38443;53.164;5.802;2023-05-02T09:04:53;102737.84;;;8.46;100.00
52535;BME280;38443;53.164;5.802;2023-05-02T09:07:19;102753.09;;;8.57;100.00
52535;BME280;38443;53.164;5.802;2023-05-02T09:09:46;102744.31;;;8.71;96.20
52535;BME280;38443;53.164;5.802;2023-05-02T09:12:12;102743.44;;;8.72;82.81
52535;BME280;38443;53.164;5.802;2023-05-02T09:14:37;102741.78;;;8.88;93.15
52535;BME280;38443;53.164;5.802;2023-05-02T09:17:03;102752.50;;;8.89;87.33
52535;BME280;38443;53.164;5.802;2023-05-02T09:19:28;102752.47;;;8.88;82.75
52535;BME280;38443;53.164;5.802;2023-05-02T09:22:00;102765.72;;;8.77;81.29
52535;BME280;38443;53.164;5.802;2023-05-02T09:24:25;102761.34;;;8.84;84.92
52535;BME280;38443;53.164;5.802;2023-05-02T09:26:58;102766.63;;;8.77;80.75
52535;BME280;38443;53.164;5.802;2023-05-02T09:29:25;102763.31;;;9.08;85.77
52535;BME280;38443;53.164;5.802;2023-05-02T09:31:51;102770.63;;;9.30;82.07
52535;BME280;38443;53.164;5.802;2023-05-02T09:34:18;102769.72;;;9.30;79.62
52535;BME280;38443;53.164;5.802;2023-05-02T09:36:47;102779.50;;;9.28;76.80
52535;BME280;38443;53.164;5.802;2023-05-02T09:39:17;102785.81;;;9.34;82.06
52535;BME280;38443;53.164;5.802;2023-05-02T09:41:44;102783.06;;;9.30;81.39
52535;BME280;38443;53.164;5.802;2023-05-02T09:44:19;102780.34;;;9.21;76.42
52535;BME280;38443;53.164;5.802;2023-05-02T09:46:49;102779.50;;;9.26;80.08
52535;BME280;38443;53.164;5.802;2023-05-02T09:49:15;102779.56;;;9.37;81.46
52535;BME280;38443;53.164;5.802;2023-05-02T09:51:47;102786.66;;;9.33;78.08
52535;BME280;38443;53.164;5.802;2023-05-02T09:54:13;102793.00;;;9.45;80.46
52535;BME280;38443;53.164;5.802;2023-05-02T09:56:55;102792.16;;;9.55;73.89
52535;BME280;38443;53.164;5.802;2023-05-02T09:59:21;102788.72;;;9.73;72.43
52535;BME280;38443;53.164;5.802;2023-05-02T10:01:52;102792.38;;;9.95;76.41
52535;BME280;38443;53.164;5.802;2023-05-02T10:04:19;102797.03;;;10.31;74.77
52535;BME280;38443;53.164;5.802;2023-05-02T10:06:45;102783.66;;;10.36;70.79
52535;BME280;38443;53.164;5.802;2023-05-02T10:09:13;102790.81;;;10.37;71.28
52535;BME280;38443;53.164;5.802;2023-05-02T10:11:41;102797.81;;;10.18;70.10
52535;BME280;38443;53.164;5.802;2023-05-02T10:14:10;102794.25;;;10.11;72.22
52535;BME280;38443;53.164;5.802;2023-05-02T10:17:16;102804.91;;;9.99;69.52
52535;BME280;38443;53.164;5.802;2023-05-02T10:20:05;102795.13;;;10.12;70.25
52535;BME280;38443;53.164;5.802;2023-05-02T10:22:33;102792.50;;;10.27;72.13
52535;BME280;38443;53.164;5.802;2023-05-02T10:24:58;102804.19;;;10.37;75.25
52535;BME280;38443;53.164;5.802;2023-05-02T10:27:24;102808.53;;;10.19;77.81
52535;BME280;38443;53.164;5.802;2023-05-02T10:29:50;102803.06;;;9.89;76.85
52535;BME280;38443;53.164;5.802;2023-05-02T10:32:16;102805.69;;;9.84;79.68
52535;BME280;38443;53.164;5.802;2023-05-02T10:34:42;102806.53;;;9.72;78.79
52535;BME280;38443;53.164;5.802;2023-05-02T10:37:08;102812.84;;;9.87;86.54
52535;BME280;38443;53.164;5.802;2023-05-02T10:39:33;102823.53;;;9.81;87.85
52535;BME280;38443;53.164;5.802;2023-05-02T10:42:00;102829.63;;;9.61;100.00
52535;BME280;38443;53.164;5.802;2023-05-02T10:44:34;102825.06;;;9.45;100.00
52535;BME280;38443;53.164;5.802;2023-05-02T10:46:59;102835.75;;;9.43;100.00
52535;BME280;38443;53.164;5.802;2023-05-02T10:49:25;102835.59;;;9.23;100.00
52535;BME280;38443;53.164;5.802;2023-05-02T10:51:51;102836.50;;;9.25;100.00
52535;BME280;38443;53.164;5.802;2023-05-02T10:54:21;102834.84;;;9.43;100.00
52535;BME280;38443;53.164;5.802;2023-05-02T10:59:40;102839.38;;;9.53;100.00
52535;BME280;38443;53.164;5.802;2023-05-02T11:05:01;102836.72;;;9.54;100.00
52535;BME280;38443;53.164;5.802;2023-05-02T11:07:29;102831.59;;;9.90;96.79
52535;BME280;38443;53.164;5.802;2023-05-02T11:13:01;102838.09;;;10.40;83.57
52535;BME280;38443;53.164;5.802;2023-05-02T11:20:30;102839.00;;;10.48;87.60
52535;BME280;38443;53.164;5.802;2023-05-02T11:22:58;102844.28;;;10.29;90.96
52535;BME280;38443;53.164;5.802;2023-05-02T11:25:32;102837.97;;;10.16;93.63
52535;BME280;38443;53.164;5.802;2023-05-02T11:27:58;102841.50;;;10.08;90.76
52535;BME280;38443;53.164;5.802;2023-05-02T11:30:40;102842.38;;;10.04;89.80
52535;BME280;38443;53.164;5.802;2023-05-02T11:35:34;102844.97;;;9.90;96.85
52535;BME280;38443;53.164;5.802;2023-05-02T11:38:10;102854.66;;;9.74;97.41
52535;BME280;38443;53.164;5.802;2023-05-02T11:40:36;102851.03;;;9.61;95.96
52535;BME280;38443;53.164;5.802;2023-05-02T11:43:14;102852.00;;;9.74;93.90
52535;BME280;38443;53.164;5.802;2023-05-02T11:45:39;102857.38;;;9.78;98.19
52535;BME280;38443;53.164;5.802;2023-05-02T11:48:07;102868.22;;;10.03;97.35
52535;BME280;38443;53.164;5.802;2023-05-02T11:50:33;102872.78;;;10.16;99.76
52535;BME280;38443;53.164;5.802;2023-05-02T11:52:59;102875.59;;;10.44;99.69
52535;BME280;38443;53.164;5.802;2023-05-02T11:55:25;102865.84;;;10.65;98.86
52535;BME280;38443;53.164;5.802;2023-05-02T11:57:50;102863.19;;;10.69;97.75
52535;BME280;38443;53.164;5.802;2023-05-02T12:00:15;102865.78;;;10.38;95.21
52535;BME280;38443;53.164;5.802;2023-05-02T12:02:43;102863.16;;;10.60;92.52
52535;BME280;38443;53.164;5.802;2023-05-02T12:05:10;102857.00;;;11.12;87.60
52535;BME280;38443;53.164;5.802;2023-05-02T12:07:44;102862.38;;;11.30;71.72
52535;BME280;38443;53.164;5.802;2023-05-02T12:10:11;102860.59;;;11.45;79.03
52535;BME280;38443;53.164;5.802;2023-05-02T12:12:38;102871.31;;;11.32;80.30
52535;BME280;38443;53.164;5.802;2023-05-02T12:15:06;102877.50;;;10.90;78.32
52535;BME280;38443;53.164;5.802;2023-05-02T12:17:32;102874.75;;;10.54;91.00
52535;BME280;38443;53.164;5.802;2023-05-02T12:19:59;102884.47;;;10.31;99.52
52535;BME280;38443;53.164;5.802;2023-05-02T12:22:27;102887.97;;;10.21;100.00
52535;BME280;38443;53.164;5.802;2023-05-02T12:24:53;102889.63;;;10.06;100.00
52535;BME280;38443;53.164;5.802;2023-05-02T12:27:18;102893.25;;;10.08;100.00
52535;BME280;38443;53.164;5.802;2023-05-02T12:29:45;102890.56;;;10.11;100.00
52535;BME280;38443;53.164;5.802;2023-05-02T12:32:12;102896.84;;;10.16;100.00
52535;BME280;38443;53.164;5.802;2023-05-02T12:34:39;102904.00;;;10.24;96.18
52535;BME280;38443;53.164;5.802;2023-05-02T12:37:06;102901.44;;;10.37;93.03
52535;BME280;38443;53.164;5.802;2023-05-02T12:39:41;102906.88;;;10.53;86.85
52535;BME280;38443;53.164;5.802;2023-05-02T12:42:11;102900.69;;;10.69;89.04
52535;BME280;38443;53.164;5.802;2023-05-02T12:44:38;102915.91;;;10.81;85.45
52535;BME280;38443;53.164;5.802;2023-05-02T12:47:05;102916.72;;;10.57;82.40
52535;BME280;38443;53.164;5.802;2023-05-02T12:49:31;102915.72;;;10.35;81.66
52535;BME280;38443;53.164;5.802;2023-05-02T12:51:56;102916.50;;;10.23;80.00
52535;BME280;38443;53.164;5.802;2023-05-02T12:54:22;102926.41;;;10.38;79.05
52535;BME280;38443;53.164;5.802;2023-05-02T12:56:47;102922.75;;;10.28;75.76
52535;BME280;38443;53.164;5.802;2023-05-02T12:59:29;102931.59;;;10.13;69.89
52535;BME280;38443;53.164;5.802;2023-05-02T13:01:55;102932.50;;;10.14;71.57
52535;BME280;38443;53.164;5.802;2023-05-02T13:04:20;102930.03;;;10.38;72.62
52535;BME280;38443;53.164;5.802;2023-05-02T13:06:46;102931.91;;;10.66;73.62
52535;BME280;38443;53.164;5.802;2023-05-02T13:09:11;102928.41;;;10.88;71.88
52535;BME280;38443;53.164;5.802;2023-05-02T13:11:36;102921.28;;;10.92;66.82
52535;BME280;38443;53.164;5.802;2023-05-02T13:14:03;102937.38;;;11.00;69.67
52535;BME280;38443;53.164;5.802;2023-05-02T13:16:30;102936.50;;;11.01;68.82
52535;BME280;38443;53.164;5.802;2023-05-02T13:18:55;102923.97;;;11.00;67.48
52535;BME280;38443;53.164;5.802;2023-05-02T13:21:21;102922.25;;;11.18;66.39